首页
METAR-TAF:

METAR-TAF

机场 :

大加那利机场

大加那利岛, 西班牙

纬度: 27-56N, 经度: 015-23W, 海拔: 23米

当前天气观测

该预报发布于18分钟前的02:30 UTC
风速9节,风向
温度 18°C
湿度 52%
气压 1021 hPa
能见度10公里或以上
少量云层高于3000英尺

METAR: GCLP 170230Z 35009KT 9999 FEW030 18/08 Q1021 NOSIG

时间: 02:48 (02:48 UTC)

预报

该预报发布于48分钟前的02:00 UTC
预报有效从17日的 03点(UTC)到 18日的 03点(UTC)
风速10节,风向
能见度10公里或以上
散云层高于2500英尺
几率 30% :
短暂存在
从 17日的 21点(UTC)到 17日的 24点(UTC)
能見度: 3000
多云层高于1400英尺
毛毛雨

TAF: GCLP 170200Z 1703/1803 35010KT 9999 SCT025 TX20/1715Z TN13/1706Z PROB30 TEMPO 1721/1724 3000 DZ BKN014

超过4000个机场的气象观测和天气预报(METAR&TAF报告)。

可查询的气象台以黄色和红色小点在地图上表示。

将鼠标移到小点上方,可查看气象台名称。

然后点击查看天气观测和预报。

如需切换地图:点击带黑十字的绿色按钮放大地图;点击带横线的绿色按钮缩小地图;或者点击绿色箭头查看邻近地区的地图。


METAR-TAF: